createdAt,value
2022-10-25T00:00:29.387Z,12.90
2022-10-25T00:01:30.472Z,12.90
2022-10-25T00:02:32.512Z,12.89
2022-10-25T00:03:29.287Z,12.97
2022-10-25T00:04:25.991Z,12.92
2022-10-25T00:05:22.716Z,13.10
2022-10-25T00:06:19.789Z,12.96
2022-10-25T00:07:16.589Z,13.02
2022-10-25T00:08:13.355Z,13.06
2022-10-25T00:09:10.654Z,12.83
2022-10-25T00:10:08.168Z,13.02
2022-10-25T00:11:06.107Z,12.43
2022-10-25T00:12:02.968Z,12.45
2022-10-25T00:12:59.653Z,12.63
2022-10-25T00:13:59.944Z,12.65
2022-10-25T00:14:56.630Z,12.68
2022-10-25T00:15:53.314Z,12.65
2022-10-25T00:16:50.047Z,12.68
2022-10-25T00:17:46.858Z,12.68
2022-10-25T00:18:44.277Z,12.90
2022-10-25T00:19:40.983Z,12.94
2022-10-25T00:20:38.299Z,12.84
2022-10-25T00:21:34.996Z,13.17
2022-10-25T00:22:31.694Z,13.22
2022-10-25T00:23:28.377Z,12.94
2022-10-25T00:24:25.175Z,12.41
2022-10-25T00:25:21.901Z,12.72
2022-10-25T00:26:19.877Z,12.80
2022-10-25T00:27:16.579Z,12.59
2022-10-25T00:28:13.286Z,12.62
2022-10-25T00:29:11.739Z,12.61
2022-10-25T00:30:09.215Z,12.75
2022-10-25T00:31:12.302Z,12.99
2022-10-25T00:32:08.983Z,13.12
2022-10-25T00:33:05.682Z,12.99
2022-10-25T00:34:02.568Z,12.93
2022-10-25T00:34:59.276Z,12.82
2022-10-25T00:35:55.976Z,12.48
2022-10-25T00:36:52.674Z,11.73
2022-10-25T00:37:50.308Z,12.64
2022-10-25T00:38:48.095Z,12.08
2022-10-25T00:39:46.102Z,11.58
2022-10-25T00:40:42.806Z,12.17
2022-10-25T00:41:39.552Z,12.29
2022-10-25T00:42:36.308Z,12.30
2022-10-25T00:43:40.583Z,12.39
2022-10-25T00:44:40.061Z,12.77
2022-10-25T00:45:37.736Z,12.08
2022-10-25T00:46:34.507Z,12.57
2022-10-25T00:47:45.915Z,12.41
2022-10-25T00:49:11.117Z,12.05
2022-10-25T00:50:10.646Z,12.20
2022-10-25T00:51:08.173Z,11.93
2022-10-25T00:52:08.397Z,12.09
2022-10-25T00:53:11.617Z,11.49
2022-10-25T00:54:15.128Z,11.32
2022-10-25T00:55:17.601Z,12.22
2022-10-25T00:56:22.486Z,12.42
2022-10-25T00:57:27.254Z,12.68
2022-10-25T00:58:28.731Z,12.70
2022-10-25T00:59:28.757Z,12.83
2022-10-25T01:00:25.625Z,12.87
2022-10-25T01:01:24.712Z,12.83
2022-10-25T01:02:22.907Z,11.91
2022-10-25T01:03:23.961Z,11.37
2022-10-25T01:04:26.510Z,11.29
2022-10-25T01:05:23.721Z,12.21
2022-10-25T01:06:30.058Z,12.14
2022-10-25T01:07:26.822Z,11.96
2022-10-25T01:08:25.270Z,11.79
2022-10-25T01:09:26.758Z,12.09
2022-10-25T01:10:23.458Z,11.81
2022-10-25T01:11:20.633Z,12.08
2022-10-25T01:12:17.539Z,11.67
2022-10-25T01:13:14.708Z,11.92
2022-10-25T01:14:15.440Z,11.99
2022-10-25T01:15:13.358Z,12.36
2022-10-25T01:16:26.656Z,12.33
2022-10-25T01:18:01.707Z,12.60
2022-10-25T01:19:16.508Z,12.79
2022-10-25T01:20:34.765Z,12.74
2022-10-25T01:21:45.806Z,12.32
2022-10-25T01:22:49.351Z,12.16
2022-10-25T01:24:44.566Z,12.60
2022-10-25T01:25:59.322Z,12.40
2022-10-25T01:27:14.451Z,12.07
2022-10-25T01:28:13.922Z,12.09
2022-10-25T01:30:01.434Z,12.32
2022-10-25T01:31:12.767Z,12.53
2022-10-25T01:32:26.193Z,12.40
2022-10-25T01:33:36.904Z,11.89
2022-10-25T01:34:45.900Z,12.18
2022-10-25T01:35:57.923Z,12.21
2022-10-25T01:37:00.475Z,12.17
2022-10-25T01:38:22.272Z,12.33
2022-10-25T01:39:20.828Z,12.24
2022-10-25T01:40:32.416Z,12.25
2022-10-25T01:41:49.164Z,12.17
2022-10-25T01:43:07.127Z,12.33
2022-10-25T01:44:09.914Z,12.44
2022-10-25T01:45:27.646Z,12.30
2022-10-25T01:46:44.844Z,11.13
2022-10-25T01:47:55.835Z,12.19
2022-10-25T01:49:05.864Z,12.02
2022-10-25T01:50:11.013Z,11.90
2022-10-25T01:51:14.481Z,11.93
2022-10-25T01:52:11.198Z,11.49
2022-10-25T01:53:08.076Z,11.69
2022-10-25T01:54:19.514Z,11.99
2022-10-25T01:55:19.813Z,11.93
2022-10-25T01:56:26.817Z,12.03
2022-10-25T01:57:26.570Z,12.22
2022-10-25T01:58:52.174Z,12.18
2022-10-25T02:00:09.583Z,12.10
2022-10-25T02:01:46.844Z,11.80
2022-10-25T02:03:34.357Z,12.10
2022-10-25T02:05:04.558Z,12.24
2022-10-25T02:06:16.704Z,11.99
2022-10-25T02:07:22.190Z,12.38
2022-10-25T02:08:18.817Z,12.37
2022-10-25T02:09:27.889Z,12.25
2022-10-25T02:10:40.923Z,11.22
2022-10-25T02:11:37.849Z,12.17
2022-10-25T02:12:49.509Z,12.32
2022-10-25T02:13:52.038Z,12.31
2022-10-25T02:15:23.983Z,12.00
2022-10-25T02:16:27.463Z,11.86
2022-10-25T02:17:27.743Z,12.09
2022-10-25T02:19:37.210Z,11.35
2022-10-25T02:20:36.195Z,11.71
2022-10-25T02:21:36.974Z,11.79
2022-10-25T02:22:35.383Z,11.60
2022-10-25T02:23:36.934Z,12.00
2022-10-25T02:24:36.684Z,11.92
2022-10-25T02:25:36.120Z,11.65
2022-10-25T02:26:34.301Z,11.43
2022-10-25T02:27:33.774Z,11.13
2022-10-25T02:28:35.930Z,11.32
2022-10-25T02:29:35.688Z,11.73
2022-10-25T02:30:35.725Z,10.99
2022-10-25T02:31:36.317Z,11.48
2022-10-25T02:32:34.002Z,12.02
2022-10-25T02:33:30.727Z,11.67
2022-10-25T02:34:27.409Z,11.46
2022-10-25T02:35:24.103Z,10.56
2022-10-25T02:36:23.895Z,11.50
2022-10-25T02:37:20.661Z,11.31
2022-10-25T02:38:18.122Z,11.81
2022-10-25T02:39:15.177Z,11.79
2022-10-25T02:40:12.455Z,11.88
2022-10-25T02:41:09.554Z,11.04
2022-10-25T02:42:06.382Z,11.64
2022-10-25T02:43:03.117Z,11.76
2022-10-25T02:44:00.515Z,11.46
2022-10-25T02:44:57.197Z,11.80
2022-10-25T02:45:53.904Z,11.70
2022-10-25T02:46:50.601Z,11.78
2022-10-25T02:47:47.532Z,11.49
2022-10-25T02:48:44.953Z,11.46
2022-10-25T02:49:41.737Z,11.61
2022-10-25T02:50:38.438Z,11.45
2022-10-25T02:51:35.146Z,11.57
2022-10-25T02:52:31.868Z,11.89
2022-10-25T02:53:28.992Z,11.92
2022-10-25T02:54:25.793Z,11.95
2022-10-25T02:55:22.500Z,12.04
2022-10-25T02:56:22.049Z,11.99
2022-10-25T02:57:18.862Z,10.46
2022-10-25T02:58:15.555Z,11.68
2022-10-25T02:59:15.228Z,11.76
2022-10-25T03:01:16.746Z,11.53
2022-10-25T03:02:13.518Z,11.61
2022-10-25T03:03:10.218Z,11.94
2022-10-25T03:04:06.927Z,11.77
2022-10-25T03:05:03.693Z,11.56
2022-10-25T03:06:00.937Z,11.38
2022-10-25T03:06:57.774Z,11.38
2022-10-25T03:07:54.451Z,11.42
2022-10-25T03:08:51.200Z,11.30
2022-10-25T03:09:47.962Z,11.38
2022-10-25T03:10:44.673Z,11.25
2022-10-25T03:11:41.459Z,11.76
2022-10-25T03:12:38.306Z,11.05
2022-10-25T03:13:35.364Z,11.57
2022-10-25T03:14:32.154Z,11.37
2022-10-25T03:15:28.842Z,11.27
2022-10-25T03:16:25.531Z,11.17
2022-10-25T03:17:22.222Z,11.29
2022-10-25T03:18:18.930Z,11.41
2022-10-25T03:19:15.652Z,11.52
2022-10-25T03:20:12.362Z,11.82
2022-10-25T03:21:09.066Z,11.72
2022-10-25T03:22:05.779Z,11.48
2022-10-25T03:23:02.494Z,11.71
2022-10-25T03:23:59.238Z,11.05
2022-10-25T03:24:55.957Z,11.31
2022-10-25T03:25:54.417Z,11.16
2022-10-25T03:26:51.388Z,11.23
2022-10-25T03:27:48.767Z,11.18
2022-10-25T03:28:45.912Z,11.20
2022-10-25T03:29:42.667Z,11.29
2022-10-25T03:30:41.874Z,11.26
2022-10-25T03:31:38.608Z,10.88
2022-10-25T03:32:35.307Z,11.40
2022-10-25T03:33:31.998Z,11.40
2022-10-25T03:34:28.743Z,11.61
2022-10-25T03:35:26.296Z,11.56
2022-10-25T03:36:23.084Z,10.91
2022-10-25T03:37:19.817Z,11.13
2022-10-25T03:38:16.785Z,11.15
2022-10-25T03:39:13.482Z,11.11
2022-10-25T03:40:10.725Z,11.43
2022-10-25T03:41:07.747Z,11.63
2022-10-25T03:42:04.738Z,11.69
2022-10-25T03:43:01.419Z,11.45
2022-10-25T03:43:58.151Z,11.25
2022-10-25T03:44:54.842Z,11.55
2022-10-25T03:45:51.518Z,11.33
2022-10-25T03:46:48.239Z,11.07
2022-10-25T03:47:45.870Z,11.23
2022-10-25T03:48:42.871Z,11.51
2022-10-25T03:49:39.667Z,11.58
2022-10-25T03:50:36.389Z,11.54
2022-10-25T03:51:33.189Z,11.59
2022-10-25T03:52:29.948Z,11.60
2022-10-25T03:53:26.633Z,11.59
2022-10-25T03:54:25.622Z,11.33
2022-10-25T03:55:25.693Z,11.12
2022-10-25T03:56:22.470Z,10.66
2022-10-25T03:57:19.323Z,10.66
2022-10-25T03:58:16.346Z,10.03
2022-10-25T03:59:13.022Z,11.01
2022-10-25T04:00:10.869Z,11.11
2022-10-25T04:01:11.015Z,10.80
2022-10-25T04:02:07.807Z,10.94
2022-10-25T04:03:04.716Z,10.84
2022-10-25T04:04:01.591Z,10.77
2022-10-25T04:04:58.310Z,10.46
2022-10-25T04:05:54.989Z,10.49
2022-10-25T04:06:51.687Z,10.87
2022-10-25T04:07:48.813Z,10.97
2022-10-25T04:08:45.775Z,11.08
2022-10-25T04:09:42.567Z,10.86
2022-10-25T04:10:39.263Z,11.21
2022-10-25T04:11:36.084Z,11.21
2022-10-25T04:12:32.803Z,10.97
2022-10-25T04:13:29.813Z,10.69
2022-10-25T04:14:26.526Z,10.67
2022-10-25T04:15:24.069Z,11.02
2022-10-25T04:16:20.812Z,10.93
2022-10-25T04:17:17.571Z,10.98
2022-10-25T04:18:14.270Z,11.04
2022-10-25T04:19:11.183Z,10.89
2022-10-25T04:20:08.385Z,10.89
2022-10-25T04:21:05.232Z,10.84
2022-10-25T04:22:04.873Z,10.79
2022-10-25T04:23:01.630Z,10.36
2022-10-25T04:24:00.638Z,11.27
2022-10-25T04:25:00.217Z,11.17
2022-10-25T04:25:57.280Z,11.12
2022-10-25T04:26:54.044Z,10.94
2022-10-25T04:27:50.791Z,10.78
2022-10-25T04:28:53.282Z,10.22
2022-10-25T04:29:49.977Z,10.88
2022-10-25T04:30:46.683Z,10.99
2022-10-25T04:31:43.444Z,10.68
2022-10-25T04:32:40.132Z,10.52
2022-10-25T04:33:36.839Z,10.72
2022-10-25T04:34:33.551Z,10.79
2022-10-25T04:35:30.305Z,10.63
2022-10-25T04:36:30.218Z,10.71
2022-10-25T04:37:26.937Z,10.97
2022-10-25T04:38:24.930Z,10.89
2022-10-25T04:39:21.662Z,11.03
2022-10-25T04:40:22.587Z,10.10
2022-10-25T04:41:21.634Z,11.18
2022-10-25T04:42:19.437Z,11.05
2022-10-25T04:43:16.262Z,10.87
2022-10-25T04:44:13.009Z,10.93
2022-10-25T04:45:09.967Z,10.55
2022-10-25T04:46:06.822Z,10.47
2022-10-25T04:47:03.566Z,10.33
2022-10-25T04:48:00.250Z,10.79
2022-10-25T04:48:57.238Z,10.86
2022-10-25T04:49:53.888Z,11.18
2022-10-25T04:50:50.684Z,10.50
2022-10-25T04:51:47.531Z,10.22
2022-10-25T04:52:44.506Z,10.84
2022-10-25T04:53:41.346Z,10.04
2022-10-25T04:54:38.115Z,11.26
2022-10-25T04:55:34.991Z,11.29
2022-10-25T04:56:31.870Z,11.19
2022-10-25T04:57:28.533Z,11.21
2022-10-25T04:58:30.375Z,10.70
2022-10-25T04:59:28.366Z,10.59
2022-10-25T05:00:26.005Z,11.12
2022-10-25T05:01:22.811Z,10.95
2022-10-25T05:02:19.801Z,11.42
2022-10-25T05:03:16.726Z,11.38
2022-10-25T05:04:13.434Z,11.48
2022-10-25T05:05:10.538Z,11.47
2022-10-25T05:06:11.670Z,11.44
2022-10-25T05:07:08.386Z,11.36
2022-10-25T05:08:05.186Z,11.42
2022-10-25T05:09:01.887Z,11.14
2022-10-25T05:09:58.626Z,10.08
2022-10-25T05:10:55.418Z,10.87
2022-10-25T05:11:52.100Z,11.13
2022-10-25T05:12:49.045Z,10.37
2022-10-25T05:13:46.993Z,10.78
2022-10-25T05:14:44.211Z,11.01
2022-10-25T05:15:40.911Z,10.92
2022-10-25T05:16:39.159Z,11.18
2022-10-25T05:17:35.930Z,10.58
2022-10-25T05:18:34.579Z,11.50
2022-10-25T05:19:31.266Z,11.43
2022-10-25T05:20:28.658Z,10.99
2022-10-25T05:21:28.743Z,11.32
2022-10-25T05:22:26.315Z,11.18
2022-10-25T05:23:24.378Z,11.24
2022-10-25T05:24:21.176Z,10.94
2022-10-25T05:25:18.344Z,10.10
2022-10-25T05:26:19.125Z,11.19
2022-10-25T05:27:16.220Z,11.13
2022-10-25T05:28:12.943Z,11.17
2022-10-25T05:29:12.501Z,11.22
2022-10-25T05:30:10.023Z,11.35
2022-10-25T05:32:07.559Z,11.49
2022-10-25T05:33:04.919Z,11.59
2022-10-25T05:34:01.973Z,11.48
2022-10-25T05:34:58.690Z,11.29
2022-10-25T05:35:55.419Z,11.51
2022-10-25T05:36:52.166Z,11.65
2022-10-25T05:37:48.864Z,11.71
2022-10-25T05:38:45.797Z,11.89
2022-10-25T05:39:42.504Z,11.94
2022-10-25T05:40:39.330Z,11.01
2022-10-25T05:41:37.298Z,11.60
2022-10-25T05:42:34.216Z,11.46
2022-10-25T05:43:31.174Z,11.45
2022-10-25T05:44:27.875Z,11.92
2022-10-25T05:45:24.571Z,10.74
2022-10-25T05:46:24.311Z,11.65
2022-10-25T05:47:21.088Z,11.75
2022-10-25T05:48:19.039Z,10.97
2022-10-25T05:49:15.779Z,11.32
2022-10-25T05:50:12.509Z,11.69
2022-10-25T05:51:32.172Z,11.75
2022-10-25T05:52:29.761Z,11.77
2022-10-25T05:53:26.502Z,11.87
2022-10-25T05:54:23.685Z,11.86
2022-10-25T05:55:20.367Z,11.97
2022-10-25T05:56:18.980Z,11.97
2022-10-25T05:57:15.913Z,10.92
2022-10-25T05:58:12.612Z,12.31
2022-10-25T05:59:12.224Z,11.54
2022-10-25T06:00:09.464Z,12.48
2022-10-25T06:01:07.227Z,12.60
2022-10-25T06:02:04.155Z,12.67
2022-10-25T06:03:02.487Z,12.56
2022-10-25T06:03:59.306Z,12.65
2022-10-25T06:04:56.017Z,12.82
2022-10-25T06:05:52.882Z,13.20
2022-10-25T06:06:52.126Z,11.43
2022-10-25T06:07:48.910Z,13.04
2022-10-25T06:08:46.367Z,13.20
2022-10-25T06:09:43.070Z,13.24
2022-10-25T06:10:39.798Z,13.01
2022-10-25T06:11:37.931Z,12.02
2022-10-25T06:12:34.668Z,13.11
2022-10-25T06:13:31.999Z,12.30
2022-10-25T06:14:28.673Z,13.01
2022-10-25T06:15:25.406Z,13.12
2022-10-25T06:16:22.681Z,13.04
2022-10-25T06:17:19.417Z,13.24
2022-10-25T06:18:16.175Z,12.74
2022-10-25T06:19:12.937Z,13.32
2022-10-25T06:20:09.717Z,13.00
2022-10-25T06:21:10.125Z,13.08
2022-10-25T06:22:06.817Z,13.30
2022-10-25T06:23:05.309Z,13.32
2022-10-25T06:24:05.470Z,13.20
2022-10-25T06:25:02.171Z,13.24
2022-10-25T06:26:01.417Z,13.20
2022-10-25T06:26:58.112Z,13.26
2022-10-25T06:27:54.831Z,13.33
2022-10-25T06:28:57.496Z,12.97
2022-10-25T06:29:54.171Z,13.44
2022-10-25T06:30:50.850Z,13.38
2022-10-25T06:31:47.622Z,13.51
2022-10-25T06:32:44.609Z,13.34
2022-10-25T06:33:42.718Z,13.50
2022-10-25T06:34:39.439Z,13.54
2022-10-25T06:35:36.107Z,13.55
2022-10-25T06:36:32.923Z,13.44
2022-10-25T06:37:30.108Z,13.49
2022-10-25T06:38:27.185Z,13.31
2022-10-25T06:39:23.944Z,13.23
2022-10-25T06:41:25.435Z,12.50
2022-10-25T06:42:22.156Z,13.63
2022-10-25T06:43:18.873Z,13.74
2022-10-25T06:44:15.582Z,13.65
2022-10-25T06:45:12.284Z,13.59
2022-10-25T06:46:31.774Z,13.67
2022-10-25T06:47:28.460Z,13.53
2022-10-25T06:48:25.147Z,13.69
2022-10-25T06:49:21.844Z,13.93
2022-10-25T06:50:19.117Z,13.55
2022-10-25T06:51:16.134Z,13.35
2022-10-25T06:52:12.831Z,13.64
2022-10-25T06:53:09.849Z,12.75
2022-10-25T06:54:08.145Z,13.88
2022-10-25T06:55:05.230Z,13.99
2022-10-25T06:56:04.736Z,13.86
2022-10-25T06:57:02.283Z,14.07
2022-10-25T06:59:13.568Z,14.30
2022-10-25T07:00:11.037Z,14.13
2022-10-25T07:01:11.436Z,14.25
2022-10-25T07:02:09.381Z,14.29
2022-10-25T07:03:06.161Z,14.01
2022-10-25T07:04:03.586Z,14.38
2022-10-25T07:05:00.284Z,13.76
2022-10-25T07:06:26.918Z,14.38
2022-10-25T07:07:23.671Z,14.56
2022-10-25T07:08:20.403Z,14.57
2022-10-25T07:09:17.128Z,14.18
2022-10-25T07:10:13.885Z,14.73
2022-10-25T07:11:19.581Z,14.86
2022-10-25T07:12:16.291Z,14.85
2022-10-25T07:13:12.971Z,14.11
2022-10-25T07:14:10.281Z,14.69
2022-10-25T07:15:07.629Z,15.06
2022-10-25T07:16:07.173Z,15.08
2022-10-25T07:17:03.990Z,14.87
2022-10-25T07:18:00.677Z,14.67
2022-10-25T07:19:01.871Z,14.87
2022-10-25T07:19:58.601Z,14.04
2022-10-25T07:20:59.650Z,14.92
2022-10-25T07:21:56.342Z,14.59
2022-10-25T07:22:55.528Z,14.70
2022-10-25T07:23:55.914Z,14.65
2022-10-25T07:24:52.615Z,14.80
2022-10-25T07:25:49.299Z,14.99
2022-10-25T07:26:46.050Z,14.69
2022-10-25T07:27:42.776Z,15.07
2022-10-25T07:28:40.679Z,14.76
2022-10-25T07:29:37.344Z,14.43
2022-10-25T07:30:34.352Z,15.08
2022-10-25T07:31:34.841Z,15.04
2022-10-25T07:32:31.531Z,14.00
2022-10-25T07:33:31.298Z,14.53
2022-10-25T07:34:28.027Z,14.44
2022-10-25T07:35:24.715Z,15.42
2022-10-25T07:36:21.442Z,15.50
2022-10-25T07:37:18.135Z,15.52
2022-10-25T07:38:15.815Z,15.54
2022-10-25T07:39:12.714Z,14.94
2022-10-25T09:07:01.901Z,17.94
2022-10-25T09:08:15.387Z,18.22
2022-10-25T09:09:30.880Z,18.37
2022-10-25T09:10:52.054Z,18.48
2022-10-25T09:11:54.973Z,15.84
2022-10-25T09:12:57.753Z,18.66
2022-10-25T09:14:12.098Z,18.64
2022-10-25T09:15:17.891Z,18.82
2022-10-25T09:16:24.558Z,18.64
2022-10-25T09:17:27.367Z,18.80
2022-10-25T09:18:47.338Z,18.12
2022-10-25T09:20:17.937Z,18.89
2022-10-25T09:21:59.299Z,19.03
2022-10-25T09:23:11.414Z,19.02
2022-10-25T09:24:45.534Z,18.99
2022-10-25T09:26:06.594Z,19.01
2022-10-25T09:27:15.393Z,19.14
2022-10-25T09:28:46.528Z,18.87
2022-10-25T09:29:53.142Z,18.14
2022-10-25T09:30:56.714Z,19.31
2022-10-25T09:31:58.322Z,18.31
2022-10-25T09:33:01.352Z,19.29
2022-10-25T09:34:04.448Z,19.30
2022-10-25T09:35:04.626Z,18.71
2022-10-25T09:36:04.084Z,19.03
2022-10-25T09:37:15.666Z,19.41
2022-10-25T09:38:23.703Z,19.27
2022-10-25T09:39:35.514Z,19.33
2022-10-25T09:40:54.058Z,19.03
2022-10-25T09:41:53.843Z,19.33
2022-10-25T09:42:58.063Z,19.26
2022-10-25T09:44:12.496Z,19.55
2022-10-25T09:45:38.483Z,19.29
2022-10-25T09:46:56.188Z,19.03
2022-10-25T09:48:02.245Z,19.16
2022-10-25T09:49:03.952Z,19.37
2022-10-25T09:50:12.144Z,19.75
2022-10-25T09:51:22.750Z,19.77
2022-10-25T09:52:40.600Z,19.77
2022-10-25T09:53:42.029Z,19.84
2022-10-25T09:54:48.962Z,19.86
2022-10-25T09:55:53.970Z,19.25
2022-10-25T09:56:50.831Z,19.99
2022-10-25T09:57:47.800Z,20.07
2022-10-25T09:58:47.222Z,19.97
2022-10-25T09:59:50.263Z,20.18
2022-10-25T10:00:48.393Z,19.67
2022-10-25T10:01:45.354Z,20.12
2022-10-25T10:02:42.425Z,20.12
2022-10-25T10:03:41.278Z,20.05
2022-10-25T10:04:39.138Z,19.42
2022-10-25T10:05:37.350Z,19.41
2022-10-25T10:06:39.544Z,20.35
2022-10-25T10:07:37.513Z,20.20
2022-10-25T10:08:36.290Z,20.14
2022-10-25T10:09:43.356Z,20.33
2022-10-25T10:10:42.835Z,20.11
2022-10-25T10:11:41.990Z,19.46
2022-10-25T10:12:54.077Z,20.53
2022-10-25T10:14:14.752Z,20.54
2022-10-25T10:15:30.074Z,20.25
2022-10-25T10:16:32.584Z,20.75
2022-10-25T10:17:31.127Z,20.58
2022-10-25T10:18:33.518Z,20.77
2022-10-25T10:19:30.785Z,20.66
2022-10-25T10:20:27.506Z,21.17
2022-10-25T10:21:24.893Z,19.10
2022-10-25T10:22:21.965Z,21.33
2022-10-25T10:23:18.701Z,21.09
2022-10-25T10:24:40.055Z,21.24
2022-10-25T10:25:36.879Z,21.22
2022-10-25T10:26:43.372Z,20.63
2022-10-25T10:27:41.883Z,21.10
2022-10-25T10:28:46.319Z,21.38
2022-10-25T10:29:59.127Z,21.34
2022-10-25T10:30:59.168Z,20.53
2022-10-25T10:32:06.573Z,21.68
2022-10-25T10:33:03.657Z,21.01
2022-10-25T10:34:00.517Z,21.65
2022-10-25T10:34:58.725Z,21.28
2022-10-25T10:35:55.458Z,21.78
2022-10-25T10:37:08.011Z,21.84
2022-10-25T10:38:15.043Z,21.77
2022-10-25T10:39:23.211Z,21.48
2022-10-25T10:40:19.871Z,21.71
2022-10-25T10:41:29.741Z,21.82
2022-10-25T10:43:34.305Z,21.13
2022-10-25T10:44:36.751Z,21.89
2022-10-25T10:45:34.013Z,21.95
2022-10-25T10:46:30.803Z,21.91
2022-10-25T10:47:34.419Z,21.56
2022-10-25T10:48:44.759Z,21.97
2022-10-25T10:49:43.145Z,21.12
2022-10-25T10:50:41.617Z,21.95
2022-10-25T10:51:45.598Z,22.11
2022-10-25T10:52:46.317Z,21.20
2022-10-25T10:53:43.806Z,22.14
2022-10-25T10:54:48.101Z,22.21
2022-10-25T10:55:47.754Z,22.19
2022-10-25T10:56:57.043Z,21.74
2022-10-25T10:57:57.041Z,22.22
2022-10-25T10:58:53.867Z,22.38
2022-10-25T10:59:56.858Z,21.88
2022-10-25T11:01:05.815Z,22.42
2022-10-25T11:02:39.969Z,22.48
2022-10-25T11:03:45.022Z,22.53
2022-10-25T11:04:53.000Z,22.61
2022-10-25T11:05:54.296Z,22.64
2022-10-25T11:06:51.015Z,22.63
2022-10-25T11:07:56.363Z,22.65
2022-10-25T11:09:17.995Z,22.71
2022-10-25T11:10:20.867Z,22.62
2022-10-25T11:11:24.797Z,21.84
2022-10-25T11:12:22.284Z,21.93
2022-10-25T11:13:22.878Z,22.53
2022-10-25T11:14:20.590Z,22.81
2022-10-25T11:15:18.273Z,22.77
2022-10-25T11:16:38.346Z,22.87
2022-10-25T11:17:43.736Z,22.31
2022-10-25T11:18:53.672Z,22.84
2022-10-25T11:20:05.317Z,22.86
2022-10-25T11:21:37.371Z,22.89
2022-10-25T11:22:51.909Z,22.55
2022-10-25T11:23:58.319Z,22.93
2022-10-25T11:25:10.121Z,22.99
2022-10-25T11:26:23.099Z,22.98
2022-10-25T11:27:19.741Z,22.80
2022-10-25T11:28:42.347Z,23.06
2022-10-25T11:29:57.830Z,23.16
2022-10-25T11:31:31.639Z,23.16
2022-10-25T11:32:54.993Z,23.22
2022-10-25T11:34:23.395Z,23.22
2022-10-25T11:35:35.197Z,23.27
2022-10-25T11:36:39.906Z,23.22
2022-10-25T11:37:48.468Z,23.30
2022-10-25T11:38:56.750Z,23.36
2022-10-25T11:40:02.259Z,23.38
2022-10-25T11:41:23.842Z,23.36
2022-10-25T11:42:43.735Z,23.35
2022-10-25T11:43:58.897Z,23.34
2022-10-25T11:45:17.268Z,23.37
2022-10-25T11:46:38.157Z,22.90
2022-10-25T11:47:49.781Z,23.47
2022-10-25T11:49:16.975Z,23.49
2022-10-25T11:50:42.089Z,23.48
2022-10-25T11:51:53.854Z,23.48
2022-10-25T11:53:02.656Z,23.54
2022-10-25T11:54:17.541Z,23.43
2022-10-25T11:55:47.318Z,23.38
2022-10-25T11:56:56.864Z,23.43
2022-10-25T11:58:08.040Z,23.24
2022-10-25T11:59:26.593Z,23.60
2022-10-25T12:00:37.049Z,23.45
2022-10-25T12:02:02.989Z,23.54
2022-10-25T12:03:25.525Z,23.40
2022-10-25T12:04:42.301Z,23.11
2022-10-25T12:06:11.218Z,23.41
2022-10-25T12:07:13.802Z,23.45
2022-10-25T12:08:43.032Z,23.43
2022-10-25T12:09:52.627Z,23.42
2022-10-25T12:11:12.804Z,23.59
2022-10-25T12:12:21.640Z,23.68
2022-10-25T12:13:21.362Z,23.70
2022-10-25T12:14:29.056Z,23.76
2022-10-25T12:15:42.589Z,23.54
2022-10-25T12:16:41.633Z,23.84
2022-10-25T12:17:38.715Z,23.89
2022-10-25T12:18:59.163Z,23.60
2022-10-25T12:20:01.836Z,23.93
2022-10-25T12:20:59.707Z,23.96
2022-10-25T12:22:07.194Z,23.75
2022-10-25T12:23:13.394Z,23.70
2022-10-25T12:24:19.823Z,23.26
2022-10-25T12:25:28.333Z,23.81
2022-10-25T12:26:35.154Z,23.81
2022-10-25T12:27:34.788Z,23.89
2022-10-25T12:28:43.317Z,23.92
2022-10-25T12:29:46.006Z,23.90
2022-10-25T12:30:44.579Z,23.20
2022-10-25T12:31:52.475Z,24.00
2022-10-25T12:33:13.113Z,24.07
2022-10-25T12:34:26.271Z,23.86
2022-10-25T12:35:32.108Z,23.78
2022-10-25T12:36:41.611Z,23.95
2022-10-25T12:37:56.464Z,23.90
2022-10-25T12:39:00.946Z,23.76
2022-10-25T12:39:58.327Z,24.01
2022-10-25T12:41:01.911Z,23.83
2022-10-25T12:42:28.115Z,23.98
2022-10-25T12:43:37.298Z,23.40
2022-10-25T12:44:56.840Z,23.79
2022-10-25T12:46:30.748Z,24.07
2022-10-25T12:47:54.777Z,24.11
2022-10-25T12:48:54.144Z,24.15
2022-10-25T12:50:24.272Z,24.16
2022-10-25T12:52:00.904Z,24.13
2022-10-25T12:53:31.106Z,24.18
2022-10-25T12:54:54.502Z,24.06
2022-10-25T12:56:38.613Z,23.99
2022-10-25T12:58:13.372Z,24.28
2022-10-25T12:59:30.224Z,24.27
2022-10-25T13:00:46.910Z,24.11
2022-10-25T13:02:11.278Z,24.27
2022-10-25T13:03:32.625Z,24.24
2022-10-25T13:04:44.445Z,24.18
2022-10-25T13:06:11.830Z,24.21
2022-10-25T13:07:12.375Z,24.03
2022-10-25T13:08:11.795Z,24.18
2022-10-25T13:09:13.514Z,24.16
2022-10-25T13:10:24.063Z,24.27
2022-10-25T13:11:32.915Z,24.25
2022-10-25T13:12:30.732Z,24.17
2022-10-25T13:13:46.820Z,24.02
2022-10-25T13:14:51.524Z,24.15
2022-10-25T13:15:52.890Z,24.24
2022-10-25T13:16:49.645Z,24.05
2022-10-25T13:18:02.762Z,24.46
2022-10-25T13:19:54.675Z,24.32
2022-10-25T13:20:53.017Z,24.36
2022-10-25T13:21:55.210Z,24.34
2022-10-25T13:22:52.420Z,24.45
2022-10-25T13:23:59.908Z,23.96
2022-10-25T13:24:58.743Z,24.34
2022-10-25T13:25:55.384Z,24.36
2022-10-25T13:27:23.165Z,24.30
2022-10-25T13:28:34.038Z,24.11
2022-10-25T13:29:57.747Z,24.26
2022-10-25T13:31:32.943Z,24.12
2022-10-25T13:32:33.155Z,23.94
2022-10-25T13:33:33.346Z,24.08
2022-10-25T13:34:34.478Z,23.81
2022-10-25T13:35:51.292Z,24.10
2022-10-25T13:36:54.705Z,24.18
2022-10-25T13:38:07.046Z,24.24
2022-10-25T13:39:05.561Z,24.11
2022-10-25T13:40:19.471Z,24.22
2022-10-25T13:41:19.772Z,24.29
2022-10-25T13:42:16.399Z,24.29
2022-10-25T13:43:21.265Z,24.23
2022-10-25T13:44:46.713Z,24.18
2022-10-25T13:45:47.068Z,23.68
2022-10-25T13:46:43.838Z,24.07
2022-10-25T13:47:54.986Z,23.94
2022-10-25T13:48:54.797Z,23.98
2022-10-25T13:49:51.572Z,24.06
2022-10-25T13:50:58.398Z,24.06
2022-10-25T13:51:57.691Z,23.60
2022-10-25T13:53:06.181Z,24.25
2022-10-25T13:54:08.419Z,24.06
2022-10-25T13:55:10.142Z,24.31
2022-10-25T13:56:24.143Z,24.30
2022-10-25T13:57:52.243Z,24.45
2022-10-25T13:58:54.476Z,24.53
2022-10-25T14:00:00.912Z,24.53
2022-10-25T14:01:16.056Z,24.51
2022-10-25T14:02:22.091Z,24.55
2022-10-25T14:03:19.676Z,24.54
2022-10-25T14:04:33.768Z,24.36
2022-10-25T14:06:03.610Z,24.39
2022-10-25T14:07:37.193Z,24.46
2022-10-25T14:08:55.684Z,24.44
2022-10-25T14:09:54.206Z,23.94
2022-10-25T14:10:52.086Z,24.23
2022-10-25T14:11:52.763Z,24.29
2022-10-25T14:12:54.738Z,24.33
2022-10-25T14:14:19.135Z,24.30
2022-10-25T14:15:30.917Z,24.15
2022-10-25T14:16:34.665Z,23.53
2022-10-25T14:17:43.087Z,24.20
2022-10-25T14:18:41.110Z,24.16
2022-10-25T14:19:43.725Z,24.14
2022-10-25T14:20:44.182Z,24.10
2022-10-25T14:21:46.603Z,23.96
2022-10-25T14:22:51.704Z,24.09
2022-10-25T14:23:50.297Z,24.00
2022-10-25T14:24:52.830Z,23.79
2022-10-25T14:25:58.922Z,23.91
2022-10-25T14:26:58.751Z,23.87
2022-10-25T14:28:10.659Z,23.39
2022-10-25T14:29:21.792Z,24.14
2022-10-25T14:30:28.558Z,23.28
2022-10-25T14:31:25.302Z,24.18
2022-10-25T14:32:22.552Z,23.83
2022-10-25T14:33:29.800Z,24.23
2022-10-25T14:34:30.266Z,24.06
2022-10-25T14:35:36.392Z,24.10
2022-10-25T14:36:37.890Z,23.99
2022-10-25T14:37:41.908Z,23.90
2022-10-25T14:38:52.109Z,24.00
2022-10-25T14:39:52.929Z,24.05
2022-10-25T14:40:55.628Z,23.94
2022-10-25T14:41:59.165Z,23.83
2022-10-25T14:42:56.525Z,23.87
2022-10-25T14:43:54.159Z,23.79
2022-10-25T14:44:50.841Z,23.40
2022-10-25T14:46:15.509Z,23.72
2022-10-25T14:47:28.616Z,23.59
2022-10-25T14:48:25.484Z,23.53
2022-10-25T14:49:23.007Z,22.67
2022-10-25T14:50:25.924Z,23.59
2022-10-25T14:51:32.822Z,23.49
2022-10-25T14:52:31.515Z,22.78
2022-10-25T14:53:28.589Z,23.12
2022-10-25T14:54:34.664Z,23.46
2022-10-25T14:55:33.631Z,22.80
2022-10-25T14:56:38.378Z,23.34
2022-10-25T14:57:37.004Z,23.30
2022-10-25T14:58:43.203Z,23.22
2022-10-25T14:59:48.411Z,23.17
2022-10-25T15:00:54.355Z,23.08
2022-10-25T15:01:54.996Z,23.07
2022-10-25T15:03:08.645Z,22.21
2022-10-25T15:04:05.514Z,22.63
2022-10-25T15:05:04.727Z,22.89
2022-10-25T15:06:01.542Z,22.09
2022-10-25T15:07:00.251Z,22.46